Time;durP1;ratioP1;P1;durP2;ratioP2;P2;SDS_P1;SDS_P2;PMS_P1;PMS_P2;Temp;Humidity;BMP_temperature;BMP_pressure;BME280_temperature;BME280_humidity;BME280_pressure;Samples;Min_cycle;Max_cycle;Signal;HPM_P1;HPM_P2
2023/04/15 00:01:22;;;;;;;5.63;2.78;;;10.90;96.40;;;;;;5070279;28;20442;-68
2023/04/15 00:03:51;;;;;;;4.22;3.00;;;10.90;96.40;;;;;;5070736;28;20033;-69
2023/04/15 00:06:18;;;;;;;7.90;3.28;;;10.90;96.40;;;;;;5070700;28;20374;-68
2023/04/15 00:08:44;;;;;;;8.48;3.33;;;10.90;96.50;;;;;;5069109;28;20055;-68
2023/04/15 00:11:10;;;;;;;8.15;4.15;;;10.90;96.50;;;;;;5070262;28;20043;-68
2023/04/15 00:13:37;;;;;;;9.18;4.20;;;10.80;96.50;;;;;;5070418;28;20135;-67
2023/04/15 00:16:03;;;;;;;5.15;3.35;;;10.80;96.50;;;;;;5070726;28;20052;-68
2023/04/15 00:18:29;;;;;;;7.57;3.25;;;10.80;96.50;;;;;;5070368;28;20063;-68
2023/04/15 00:20:54;;;;;;;4.97;3.20;;;10.80;96.50;;;;;;5069175;28;20115;-68
2023/04/15 00:23:20;;;;;;;6.55;3.42;;;10.80;96.50;;;;;;5070037;28;20123;-68
2023/04/15 00:25:46;;;;;;;4.70;3.38;;;10.80;96.50;;;;;;5070340;28;20036;-68
2023/04/15 00:28:11;;;;;;;4.95;3.80;;;10.80;96.50;;;;;;5070035;28;20025;-68
2023/04/15 00:30:37;;;;;;;8.60;3.85;;;10.80;96.60;;;;;;5070610;28;20323;-67
2023/04/15 00:33:03;;;;;;;9.50;3.83;;;10.80;96.60;;;;;;5070247;28;20063;-68
2023/04/15 00:35:31;;;;;;;7.57;3.88;;;10.80;96.50;;;;;;5070014;28;20052;-68
2023/04/15 00:37:57;;;;;;;5.05;3.20;;;10.80;96.60;;;;;;5070023;28;20048;-68
2023/04/15 00:40:23;;;;;;;5.95;3.38;;;10.80;96.50;;;;;;5068965;28;20073;-68
2023/04/15 00:42:50;;;;;;;6.13;3.90;;;10.80;96.40;;;;;;5070295;28;20031;-68
2023/04/15 00:45:15;;;;;;;7.10;4.10;;;10.80;96.50;;;;;;5068978;28;20032;-68
2023/04/15 00:47:43;;;;;;;6.10;3.47;;;10.90;96.50;;;;;;5068889;28;20090;-69
2023/04/15 00:50:10;;;;;;;7.40;3.92;;;10.90;96.30;;;;;;5069925;28;20112;-68
2023/04/15 00:52:36;;;;;;;5.05;3.25;;;10.90;96.40;;;;;;5070200;28;20035;-69
2023/04/15 00:55:03;;;;;;;6.65;3.53;;;10.90;96.50;;;;;;5072761;28;20359;-69
2023/04/15 00:57:30;;;;;;;6.25;3.53;;;10.90;96.40;;;;;;5073692;28;20033;-67
2023/04/15 00:59:57;;;;;;;10.65;4.40;;;10.90;96.60;;;;;;5074868;28;20040;-68
2023/04/15 01:02:23;;;;;;;7.03;4.25;;;10.90;96.50;;;;;;5073375;28;20044;-68
2023/04/15 01:04:49;;;;;;;7.38;4.07;;;10.80;96.60;;;;;;5073246;28;20029;-68
2023/04/15 01:07:15;;;;;;;6.78;4.88;;;10.80;96.70;;;;;;5073177;28;20081;-68
2023/04/15 01:09:41;;;;;;;9.40;5.00;;;10.80;96.90;;;;;;5073661;28;20036;-67
2023/04/15 01:12:09;;;;;;;9.30;4.53;;;10.70;97.20;;;;;;5073401;28;20028;-68
2023/04/15 01:14:35;;;;;;;7.40;5.00;;;10.70;97.00;;;;;;5073156;28;20020;-68
2023/04/15 01:17:01;;;;;;;7.47;5.15;;;10.70;97.00;;;;;;5073183;28;20032;-67
2023/04/15 01:19:27;;;;;;;9.25;5.72;;;10.60;97.20;;;;;;5073058;28;20282;-67
2023/04/15 01:21:53;;;;;;;13.45;6.13;;;10.60;97.40;;;;;;5073391;28;20435;-67
2023/04/15 01:24:20;;;;;;;11.02;5.88;;;10.70;97.20;;;;;;5072861;28;20025;-66
2023/04/15 01:26:46;;;;;;;10.38;5.70;;;10.70;97.30;;;;;;5072902;28;20102;-68
2023/04/15 01:29:12;;;;;;;10.13;5.68;;;10.70;97.10;;;;;;5072858;28;20390;-68
2023/04/15 01:31:38;;;;;;;12.45;6.55;;;10.60;97.50;;;;;;5072828;28;20078;-68
2023/04/15 01:34:04;;;;;;;9.05;6.20;;;10.60;97.30;;;;;;5073269;28;20029;-68
2023/04/15 01:36:29;;;;;;;10.63;6.22;;;10.70;97.40;;;;;;5086941;28;20042;-68
2023/04/15 01:38:57;;;;;;;8.85;5.88;;;10.70;97.30;;;;;;5093015;28;20121;-68
2023/04/15 01:41:26;;;;;;;11.82;6.72;;;10.70;97.30;;;;;;5092823;28;20355;-68
2023/04/15 01:43:52;;;;;;;11.32;6.53;;;10.70;97.30;;;;;;5092958;28;20142;-68
2023/04/15 01:46:18;;;;;;;11.95;6.53;;;10.70;97.30;;;;;;5092986;28;20038;-68
2023/04/15 01:48:43;;;;;;;9.98;6.35;;;10.70;97.40;;;;;;5093119;28;20024;-69
2023/04/15 01:51:10;;;;;;;16.30;6.85;;;10.70;97.50;;;;;;5092716;28;20036;-68
2023/04/15 01:53:36;;;;;;;10.25;6.18;;;10.80;97.50;;;;;;5092520;28;20104;-68
2023/04/15 01:56:02;;;;;;;14.98;6.78;;;10.80;97.40;;;;;;5092490;28;20048;-68
2023/04/15 01:58:27;;;;;;;12.60;6.75;;;10.80;97.30;;;;;;5092524;28;20349;-69
2023/04/15 02:00:53;;;;;;;12.52;7.07;;;10.80;97.40;;;;;;5092991;28;20042;-69
2023/04/15 02:03:18;;;;;;;10.55;6.20;;;10.80;97.30;;;;;;5092945;28;20040;-68
2023/04/15 02:05:44;;;;;;;11.77;7.07;;;10.80;97.50;;;;;;5092344;28;20027;-69
2023/04/15 02:08:11;;;;;;;10.90;6.50;;;10.80;97.30;;;;;;5092403;28;20136;-68
2023/04/15 02:10:37;;;;;;;10.63;6.22;;;10.90;97.40;;;;;;5092019;28;20093;-68
2023/04/15 02:13:03;;;;;;;11.90;6.60;;;10.90;97.40;;;;;;5093163;28;20024;-68
2023/04/15 02:15:29;;;;;;;13.82;6.93;;;10.90;97.20;;;;;;5092623;28;20101;-68
2023/04/15 02:17:55;;;;;;;11.82;6.85;;;10.90;97.40;;;;;;5091006;28;20472;-69
2023/04/15 02:20:22;;;;;;;11.10;7.13;;;10.90;97.30;;;;;;5092137;28;20035;-68
2023/04/15 02:22:47;;;;;;;12.77;7.57;;;10.90;97.20;;;;;;5091971;28;20036;-69
2023/04/15 02:25:13;;;;;;;12.60;7.25;;;11.00;97.30;;;;;;5092191;28;20035;-69
2023/04/15 02:27:39;;;;;;;14.60;7.78;;;10.90;97.50;;;;;;5092432;28;20433;-69
2023/04/15 02:30:06;;;;;;;10.18;7.07;;;10.90;97.30;;;;;;5092069;28;20028;-68
2023/04/15 02:32:32;;;;;;;11.98;6.95;;;10.90;97.40;;;;;;5091828;28;20124;-68
2023/04/15 02:35:05;;;;;;;10.65;7.07;;;10.90;97.40;;;;;;5091626;28;20122;-69
2023/04/15 02:37:35;;;;;;;12.20;8.05;;;10.90;97.40;;;;;;5091680;28;20042;-68
2023/04/15 02:40:01;;;;;;;13.07;7.85;;;10.90;97.50;;;;;;5092025;28;20386;-68
2023/04/15 02:42:29;;;;;;;15.50;9.15;;;10.90;97.60;;;;;;5090409;28;20077;-68
2023/04/15 02:44:55;;;;;;;14.18;7.80;;;10.90;97.70;;;;;;5091891;28;20496;-69
2023/04/15 02:47:21;;;;;;;16.30;9.55;;;10.70;97.70;;;;;;5091650;28;20032;-68
2023/04/15 02:49:46;;;;;;;15.07;8.95;;;10.70;97.90;;;;;;5090515;28;20048;-67
2023/04/15 02:52:12;;;;;;;13.98;7.57;;;10.70;98.00;;;;;;5091642;28;20035;-68
2023/04/15 02:54:38;;;;;;;14.25;7.75;;;10.60;98.10;;;;;;5091878;28;20023;-68
2023/04/15 02:57:05;;;;;;;17.73;8.90;;;10.70;98.00;;;;;;5091537;28;20036;-69
2023/04/15 02:59:31;;;;;;;15.40;8.37;;;10.80;98.00;;;;;;5091636;28;20040;-68
2023/04/15 03:01:59;;;;;;;17.10;8.52;;;10.80;97.80;;;;;;5091228;28;20377;-68
2023/04/15 03:04:25;;;;;;;17.60;9.38;;;10.80;98.00;;;;;;5091158;28;20552;-68
2023/04/15 03:06:51;;;;;;;17.00;9.45;;;10.90;97.90;;;;;;5091677;28;20031;-69
2023/04/15 03:09:17;;;;;;;14.90;9.40;;;10.90;98.10;;;;;;5091239;28;20024;-68
2023/04/15 03:11:42;;;;;;;17.17;9.57;;;10.90;98.10;;;;;;5090561;28;20122;-68
2023/04/15 03:14:08;;;;;;;12.65;8.43;;;10.80;98.30;;;;;;5091147;28;20024;-68
2023/04/15 03:16:34;;;;;;;17.35;9.73;;;10.80;98.30;;;;;;5090446;28;20024;-69
2023/04/15 03:18:59;;;;;;;19.52;10.45;;;10.70;98.40;;;;;;5091427;28;20024;-67
2023/04/15 03:21:26;;;;;;;18.35;10.70;;;10.60;98.70;;;;;;5091266;28;20404;-69
2023/04/15 03:23:52;;;;;;;15.95;9.48;;;10.60;98.80;;;;;;5090909;28;20036;-68
2023/04/15 03:26:29;;;;;;;19.70;9.93;;;10.40;99.00;;;;;;5089925;28;20372;-68
2023/04/15 03:28:56;;;;;;;22.05;10.68;;;10.30;99.40;;;;;;5089616;28;20047;-68
2023/04/15 03:31:21;;;;;;;18.83;10.68;;;10.40;99.40;;;;;;5090583;28;20090;-69
2023/04/15 03:33:47;;;;;;;19.10;10.90;;;10.50;99.20;;;;;;5091256;28;20051;-68
2023/04/15 03:36:13;;;;;;;18.95;10.65;;;10.50;99.20;;;;;;5090911;28;20100;-68
2023/04/15 03:38:39;;;;;;;17.77;10.75;;;10.20;99.90;;;;;;5090801;28;20024;-68
2023/04/15 03:41:05;;;;;;;18.20;10.73;;;10.30;99.90;;;;;;5090758;28;20032;-69
2023/04/15 03:43:30;;;;;;;19.15;10.40;;;10.30;99.90;;;;;;5090633;28;20048;-69
2023/04/15 03:45:56;;;;;;;18.92;9.95;;;10.50;99.60;;;;;;5091083;28;20047;-67
2023/04/15 03:48:22;;;;;;;18.05;10.32;;;10.60;99.60;;;;;;5090836;28;20119;-68
2023/04/15 03:50:48;;;;;;;18.70;10.45;;;10.50;99.60;;;;;;5090859;28;20197;-69
2023/04/15 03:53:14;;;;;;;18.92;10.95;;;10.60;99.60;;;;;;5090670;28;20043;-69
2023/04/15 03:55:40;;;;;;;20.83;11.55;;;10.60;99.60;;;;;;5090483;28;20040;-69
2023/04/15 03:58:05;;;;;;;20.27;11.38;;;10.40;99.90;;;;;;5091148;28;20046;-70
2023/04/15 04:00:31;;;;;;;22.25;11.50;;;10.40;99.90;;;;;;5090538;28;20028;-69
2023/04/15 04:02:57;;;;;;;19.83;11.57;;;10.40;99.90;;;;;;5090409;28;20145;-68
2023/04/15 04:05:22;;;;;;;20.80;11.43;;;10.40;99.90;;;;;;5090536;28;20024;-68
2023/04/15 04:07:48;;;;;;;20.45;11.90;;;10.50;99.90;;;;;;5090549;28;20047;-69
2023/04/15 04:10:14;;;;;;;19.35;11.57;;;10.40;99.90;;;;;;5090323;28;20024;-68
2023/04/15 04:12:40;;;;;;;19.23;11.80;;;10.40;99.90;;;;;;5089944;28;20161;-68
2023/04/15 04:15:06;;;;;;;22.63;12.60;;;10.40;99.90;;;;;;5089483;28;20028;-69
2023/04/15 04:17:32;;;;;;;23.33;12.93;;;10.10;99.90;;;;;;5090393;28;20039;-67
2023/04/15 04:19:58;;;;;;;24.52;12.82;;;10.00;99.90;;;;;;5090585;28;20105;-68
2023/04/15 04:22:24;;;;;;;22.90;12.80;;;10.00;99.90;;;;;;5090254;28;20506;-69
2023/04/15 04:24:50;;;;;;;21.70;12.18;;;10.20;99.90;;;;;;5089695;28;20074;-67
2023/04/15 04:27:16;;;;;;;21.63;12.23;;;10.20;99.90;;;;;;5089296;28;20028;-67
2023/04/15 04:29:42;;;;;;;22.20;11.77;;;10.20;99.90;;;;;;5094094;28;20086;-67
2023/04/15 04:32:07;;;;;;;23.80;13.32;;;10.30;99.90;;;;;;5094192;28;20056;-68
2023/04/15 04:34:33;;;;;;;20.30;12.70;;;10.30;99.90;;;;;;5094362;28;20140;-68
2023/04/15 04:36:59;;;;;;;23.83;13.25;;;10.20;99.90;;;;;;5094524;28;20024;-69
2023/04/15 04:39:24;;;;;;;22.70;12.70;;;10.10;99.90;;;;;;5094257;28;20054;-68
2023/04/15 04:41:51;;;;;;;25.90;13.52;;;10.20;99.90;;;;;;5094212;28;20425;-68
2023/04/15 04:44:17;;;;;;;26.15;13.85;;;10.30;99.90;;;;;;5092687;28;20040;-68
2023/04/15 04:46:42;;;;;;;27.05;13.93;;;10.00;99.90;;;;;;5094147;28;20096;-69
2023/04/15 04:49:08;;;;;;;21.23;13.43;;;10.00;99.90;;;;;;5094293;28;20077;-67
2023/04/15 04:51:34;;;;;;;20.30;11.48;;;10.10;99.90;;;;;;5094132;28;20035;-68
2023/04/15 04:54:00;;;;;;;21.90;12.57;;;10.10;99.90;;;;;;5092687;28;20454;-68
2023/04/15 04:56:26;;;;;;;22.58;12.50;;;10.20;99.90;;;;;;5093696;28;20096;-69
2023/04/15 04:58:51;;;;;;;21.63;12.98;;;10.20;99.90;;;;;;5094197;28;20043;-68
2023/04/15 05:01:17;;;;;;;23.40;13.10;;;10.20;99.90;;;;;;5092566;28;20326;-68
2023/04/15 05:03:43;;;;;;;23.80;13.60;;;10.20;99.90;;;;;;5094358;28;20101;-67
2023/04/15 05:06:09;;;;;;;22.80;12.82;;;10.00;99.90;;;;;;5092624;28;20053;-69
2023/04/15 05:08:35;;;;;;;23.88;12.65;;;10.00;99.90;;;;;;5093757;28;20101;-69
2023/04/15 05:11:02;;;;;;;24.70;12.65;;;10.10;99.90;;;;;;5093831;28;20073;-69
2023/04/15 05:13:28;;;;;;;22.88;12.52;;;10.20;99.90;;;;;;5093602;28;20107;-69
2023/04/15 05:15:54;;;;;;;23.35;13.13;;;10.30;99.90;;;;;;5093997;28;20114;-69
2023/04/15 05:18:20;;;;;;;23.73;12.90;;;10.30;99.90;;;;;;5092334;28;20036;-68
2023/04/15 05:20:46;;;;;;;22.45;13.13;;;10.20;99.90;;;;;;5093699;28;20036;-69
2023/04/15 05:23:12;;;;;;;21.50;13.05;;;10.20;99.90;;;;;;5093142;28;20421;-68
2023/04/15 05:25:37;;;;;;;23.30;12.52;;;10.40;99.90;;;;;;5093405;28;20065;-68
2023/04/15 05:28:03;;;;;;;21.02;12.57;;;10.40;99.90;;;;;;5093631;28;20028;-69
2023/04/15 05:30:29;;;;;;;25.75;13.00;;;10.30;99.90;;;;;;5093239;28;20044;-70
2023/04/15 05:32:55;;;;;;;23.23;12.55;;;10.30;99.90;;;;;;5091916;28;20068;-68
2023/04/15 05:35:21;;;;;;;22.52;13.52;;;10.20;99.90;;;;;;5091855;28;20028;-68
2023/04/15 05:37:46;;;;;;;20.67;12.35;;;10.30;99.90;;;;;;5093187;28;20051;-70
2023/04/15 05:40:12;;;;;;;21.95;12.13;;;10.30;99.90;;;;;;5090995;28;20428;-68
2023/04/15 05:42:37;;;;;;;20.60;12.88;;;10.30;99.90;;;;;;5093154;28;20032;-70
2023/04/15 05:45:07;;;;;;;20.70;11.60;;;10.20;99.90;;;;;;5091842;28;20031;-69
2023/04/15 05:47:37;;;;;;;20.40;11.73;;;10.20;99.90;;;;;;5092727;28;20028;-68
2023/04/15 05:50:03;;;;;;;19.77;11.70;;;10.40;99.90;;;;;;5091538;28;20052;-69
2023/04/15 05:52:30;;;;;;;18.27;11.38;;;10.30;99.90;;;;;;5092638;28;20362;-68
2023/04/15 05:54:56;;;;;;;19.88;12.02;;;10.30;99.90;;;;;;5092916;28;20354;-69
2023/04/15 05:57:21;;;;;;;21.10;12.02;;;10.20;99.90;;;;;;5092531;28;20062;-69
2023/04/15 05:59:48;;;;;;;22.63;11.25;;;10.20;99.90;;;;;;5092423;28;20093;-69
2023/04/15 06:02:13;;;;;;;19.42;10.93;;;10.20;99.90;;;;;;5092384;28;20254;-69
2023/04/15 06:04:39;;;;;;;16.63;9.75;;;10.30;99.90;;;;;;5092314;28;20036;-69
2023/04/15 06:07:05;;;;;;;18.50;9.57;;;10.20;99.90;;;;;;5091597;28;20115;-68
2023/04/15 06:09:31;;;;;;;16.70;10.45;;;10.30;99.90;;;;;;5092286;28;20099;-69
2023/04/15 06:11:57;;;;;;;17.60;9.85;;;10.40;99.90;;;;;;5092437;28;20067;-68
2023/04/15 06:14:23;;;;;;;15.43;9.63;;;10.50;99.90;;;;;;5092469;28;20119;-69
2023/04/15 06:16:48;;;;;;;16.15;9.75;;;10.40;99.90;;;;;;5092428;28;20119;-69
2023/04/15 06:19:15;;;;;;;14.02;8.68;;;10.40;99.90;;;;;;5091071;28;20016;-68
2023/04/15 06:21:40;;;;;;;14.27;9.02;;;10.40;99.90;;;;;;5092531;28;20020;-69
2023/04/15 06:24:06;;;;;;;13.52;8.52;;;10.50;99.90;;;;;;5090770;28;20437;-68
2023/04/15 06:26:32;;;;;;;12.90;8.43;;;10.30;99.90;;;;;;5091929;28;20032;-69
2023/04/15 06:28:57;;;;;;;13.60;8.25;;;10.00;99.90;;;;;;5091958;28;20093;-69
2023/04/15 06:31:23;;;;;;;12.68;8.15;;;10.00;99.90;;;;;;5091535;28;20438;-69
2023/04/15 06:33:49;;;;;;;13.68;8.27;;;10.30;99.90;;;;;;5092571;28;20025;-69
2023/04/15 06:36:16;;;;;;;16.70;8.00;;;10.20;99.90;;;;;;5092871;28;20028;-69
2023/04/15 06:38:42;;;;;;;15.00;8.20;;;10.30;99.90;;;;;;5093797;28;20491;-68
2023/04/15 06:41:07;;;;;;;12.57;7.60;;;10.40;99.90;;;;;;5091747;28;20063;-68
2023/04/15 06:43:33;;;;;;;13.23;6.95;;;10.30;99.90;;;;;;5091659;28;20113;-69
2023/04/15 06:45:59;;;;;;;16.15;7.75;;;10.30;99.90;;;;;;5090819;28;20028;-68
2023/04/15 06:48:26;;;;;;;9.73;6.75;;;10.40;99.90;;;;;;5091417;28;20443;-68
2023/04/15 06:50:52;;;;;;;8.75;6.32;;;10.40;99.90;;;;;;5089790;28;20530;-69
2023/04/15 06:53:18;;;;;;;10.85;6.68;;;10.40;99.90;;;;;;5089981;28;20070;-69
2023/04/15 06:55:43;;;;;;;12.98;7.28;;;10.20;99.90;;;;;;5091535;28;20097;-68
2023/04/15 06:58:09;;;;;;;9.23;6.25;;;10.30;99.90;;;;;;5090712;28;20024;-69
2023/04/15 07:00:37;;;;;;;9.93;5.88;;;10.40;99.90;;;;;;5090083;28;20128;-68
2023/04/15 07:03:03;;;;;;;;;;;10.20;99.90;;;;;;5090823;28;20357;-69
2023/04/15 07:05:31;;;;;;;9.30;5.60;;;10.30;99.90;;;;;;5090143;28;19943;-69
2023/04/15 07:07:57;;;;;;;8.65;5.93;;;10.40;99.90;;;;;;5091189;28;20190;-69
2023/04/15 07:10:23;;;;;;;11.20;6.63;;;10.50;99.90;;;;;;5091206;28;20024;-70
2023/04/15 07:12:49;;;;;;;7.63;4.85;;;10.50;99.90;;;;;;5091611;28;20016;-70
2023/04/15 07:15:15;;;;;;;11.13;6.07;;;10.40;99.90;;;;;;5091133;28;20028;-71
2023/04/15 07:17:44;;;;;;;6.47;4.35;;;10.40;99.90;;;;;;5091233;28;20036;-68
2023/04/15 07:20:11;;;;;;;6.28;4.55;;;10.50;99.90;;;;;;5091047;28;20043;-69
2023/04/15 07:22:37;;;;;;;7.55;4.82;;;10.50;99.90;;;;;;5086170;28;20052;-69
2023/04/15 07:25:03;;;;;;;7.40;4.63;;;10.50;99.90;;;;;;5069960;28;20028;-70
2023/04/15 07:27:29;;;;;;;7.95;4.72;;;10.60;99.90;;;;;;5070688;28;20035;-69
2023/04/15 07:29:55;;;;;;;7.80;4.50;;;10.60;99.90;;;;;;5070644;28;20510;-69
2023/04/15 07:32:21;;;;;;;31.88;15.95;;;10.60;99.90;;;;;;5069180;28;20392;-70
2023/04/15 07:34:47;;;;;;;7.43;4.65;;;10.70;99.90;;;;;;5070598;28;20037;-68
2023/04/15 07:37:12;;;;;;;7.28;4.85;;;10.70;99.90;;;;;;5070658;28;20030;-69
2023/04/15 07:39:38;;;;;;;6.95;4.20;;;10.60;99.90;;;;;;5069970;28;20028;-69
2023/04/15 07:42:04;;;;;;;7.93;5.07;;;10.70;99.90;;;;;;5069463;28;20124;-67
2023/04/15 07:44:30;;;;;;;6.55;4.50;;;10.70;99.90;;;;;;5070489;28;20047;-69
2023/04/15 07:46:56;;;;;;;5.93;3.90;;;10.90;99.90;;;;;;5070777;28;20039;-72
2023/04/15 07:49:22;;;;;;;5.78;4.20;;;10.80;99.90;;;;;;5070517;28;20020;-70
2023/04/15 07:51:49;;;;;;;7.43;4.90;;;10.80;99.90;;;;;;5070898;28;20024;-71
2023/04/15 07:54:15;;;;;;;7.47;4.72;;;10.80;99.90;;;;;;5070551;28;20032;-72
2023/04/15 07:56:40;;;;;;;7.68;4.20;;;10.80;99.90;;;;;;5069349;28;20056;-70
2023/04/15 07:59:06;;;;;;;5.53;3.63;;;10.80;99.90;;;;;;5069947;28;20131;-69
2023/04/15 08:01:32;;;;;;;5.15;3.30;;;10.90;99.90;;;;;;5069330;28;20036;-69
2023/04/15 08:04:01;;;;;;;6.70;3.95;;;10.90;99.90;;;;;;5073833;28;20024;-69
2023/04/15 08:06:26;;;;;;;5.28;3.53;;;10.70;99.90;;;;;;5073470;28;20382;-70
2023/04/15 08:08:53;;;;;;;6.47;3.67;;;10.70;99.90;;;;;;5074449;28;20025;-70
2023/04/15 08:11:20;;;;;;;6.25;3.55;;;10.90;99.90;;;;;;5074306;28;20458;-68
2023/04/15 08:13:46;;;;;;;5.10;3.53;;;11.00;99.90;;;;;;5074251;28;20055;-69
2023/04/15 08:16:23;;;;;;;5.68;3.10;;;11.00;99.90;;;;;;5074536;28;20090;-69
2023/04/15 08:18:51;;;;;;;6.18;3.25;;;11.00;99.90;;;;;;5073271;28;20393;-68
2023/04/15 08:21:18;;;;;;;4.63;3.20;;;11.00;99.90;;;;;;5074129;28;20506;-68
2023/04/15 08:23:45;;;;;;;5.30;2.97;;;11.00;99.90;;;;;;5073994;28;20489;-68
2023/04/15 08:26:11;;;;;;;3.38;2.60;;;11.00;99.90;;;;;;5073931;28;20277;-69
2023/04/15 08:28:38;;;;;;;4.85;3.10;;;11.00;99.90;;;;;;5073980;28;20058;-68
2023/04/15 08:31:04;;;;;;;4.70;2.90;;;11.00;99.90;;;;;;5074201;28;20494;-68
2023/04/15 08:33:30;;;;;;;3.88;2.70;;;11.00;99.90;;;;;;5072782;28;20056;-68
2023/04/15 08:35:56;;;;;;;5.43;3.05;;;11.00;99.90;;;;;;5073970;28;20025;-67
2023/04/15 08:38:22;;;;;;;3.42;2.60;;;11.00;99.90;;;;;;5073890;28;20123;-67
2023/04/15 08:40:48;;;;;;;4.53;3.08;;;11.00;99.90;;;;;;5073825;28;20032;-68
2023/04/15 08:43:27;;;;;;;4.03;2.80;;;11.10;99.90;;;;;;5073648;28;20039;-68
2023/04/15 08:45:54;;;;;;;4.65;3.17;;;11.10;99.90;;;;;;5074108;28;20021;-68
2023/04/15 08:48:21;;;;;;;4.20;2.80;;;11.10;99.90;;;;;;5073577;28;20029;-68
2023/04/15 08:50:47;;;;;;;3.17;2.20;;;11.10;99.90;;;;;;5073515;28;20067;-68
2023/04/15 08:53:14;;;;;;;4.18;2.92;;;11.10;99.90;;;;;;5073863;28;20050;-68
2023/04/15 08:55:45;;;;;;;6.20;3.13;;;11.20;99.90;;;;;;5072233;28;20135;-67
2023/04/15 08:58:14;;;;;;;3.15;2.40;;;11.20;99.90;;;;;;5074239;28;20028;-70
2023/04/15 09:00:41;;;;;;;4.90;2.60;;;11.20;99.90;;;;;;5072435;28;20033;-69
2023/04/15 09:03:07;;;;;;;3.75;2.95;;;11.10;99.90;;;;;;5073644;28;20139;-69
2023/04/15 09:05:34;;;;;;;3.88;2.83;;;11.10;99.90;;;;;;5073350;28;20425;-68
2023/04/15 09:08:01;;;;;;;4.13;2.97;;;11.10;99.90;;;;;;5073470;28;20025;-68
2023/04/15 09:10:30;;;;;;;3.80;2.72;;;11.20;99.90;;;;;;5073349;28;20462;-68
2023/04/15 09:12:56;;;;;;;3.63;2.83;;;11.20;99.90;;;;;;5073910;28;20107;-69
2023/04/15 09:15:26;;;;;;;4.00;2.80;;;11.20;99.90;;;;;;5071916;28;20514;-69
2023/04/15 09:17:52;;;;;;;4.95;3.10;;;11.30;99.90;;;;;;5072989;28;20029;-67
2023/04/15 09:20:18;;;;;;;4.95;3.08;;;11.30;99.90;;;;;;5073089;28;20523;-68
2023/04/15 09:22:46;;;;;;;5.82;3.63;;;11.30;99.90;;;;;;5072829;28;20068;-67
2023/04/15 09:25:15;;;;;;;;;;;11.40;99.90;;;;;;5073828;28;20445;-68
2023/04/15 09:27:51;;;;;;;3.78;2.88;;;11.30;99.90;;;;;;5072845;28;19974;-68
2023/04/15 09:30:17;;;;;;;4.65;2.92;;;11.30;99.90;;;;;;5073077;28;20156;-69
2023/04/15 09:32:53;;;;;;;4.93;3.38;;;11.40;99.90;;;;;;5072880;28;20445;-69
2023/04/15 09:35:19;;;;;;;6.70;3.58;;;11.40;99.90;;;;;;5071686;28;20036;-68
2023/04/15 09:37:45;;;;;;;5.93;4.15;;;11.30;99.90;;;;;;5072668;28;20466;-68
2023/04/15 09:40:11;;;;;;;5.15;3.30;;;11.40;99.90;;;;;;5073055;28;20468;-68
2023/04/15 09:42:54;;;;;;;7.03;4.47;;;11.30;99.90;;;;;;5072806;28;20153;-68
2023/04/15 09:45:21;;;;;;;5.65;3.45;;;11.30;99.90;;;;;;5072338;28;20548;-68
2023/04/15 09:47:46;;;;;;;7.38;4.47;;;11.30;99.90;;;;;;5072460;28;20498;-69
2023/04/15 09:50:13;;;;;;;7.78;4.88;;;11.30;99.90;;;;;;5072368;28;20036;-68
2023/04/15 09:52:43;;;;;;;8.38;5.18;;;11.40;99.90;;;;;;5071211;28;20053;-70
2023/04/15 09:55:10;;;;;;;7.10;4.00;;;11.30;99.90;;;;;;5071578;28;20462;-68
2023/04/15 09:57:37;;;;;;;9.97;4.83;;;11.40;99.90;;;;;;5072217;28;20431;-69
2023/04/15 10:00:06;;;;;;;9.43;5.23;;;11.40;99.90;;;;;;5072285;28;20261;-69
2023/04/15 10:02:33;;;;;;;8.10;4.82;;;11.40;99.90;;;;;;5072113;28;20343;-68
2023/04/15 10:05:00;;;;;;;8.23;4.55;;;11.40;99.90;;;;;;5070915;28;20024;-68
2023/04/15 10:07:26;;;;;;;9.32;5.78;;;11.40;99.90;;;;;;5072245;28;20021;-69
2023/04/15 10:09:52;;;;;;;9.02;5.13;;;11.40;99.90;;;;;;5072322;28;20465;-69
2023/04/15 10:12:19;;;;;;;11.13;6.20;;;11.40;99.90;;;;;;5072199;28;20029;-70
2023/04/15 10:14:55;;;;;;;12.90;6.18;;;11.50;99.90;;;;;;5071969;28;20474;-69
2023/04/15 10:17:22;;;;;;;12.35;6.10;;;11.50;99.90;;;;;;5071939;28;20036;-69
2023/04/15 10:19:49;;;;;;;11.73;6.35;;;11.50;99.90;;;;;;5071923;28;20460;-68
2023/04/15 10:22:16;;;;;;;16.37;6.93;;;11.50;99.90;;;;;;5070672;28;20029;-68
2023/04/15 10:24:44;;;;;;;13.05;7.82;;;11.60;99.90;;;;;;5071955;28;20020;-69
2023/04/15 10:27:10;;;;;;;16.00;8.18;;;11.50;99.90;;;;;;5071574;28;20044;-68
2023/04/15 10:29:36;;;;;;;17.10;8.02;;;11.50;99.90;;;;;;5071576;28;20028;-68
2023/04/15 10:32:02;;;;;;;17.85;8.75;;;11.50;99.90;;;;;;5071097;28;20056;-69
2023/04/15 10:34:30;;;;;;;18.02;9.15;;;11.50;99.90;;;;;;5071609;28;20381;-68
2023/04/15 10:37:02;;;;;;;18.13;9.25;;;11.50;99.90;;;;;;5072063;28;20035;-68
2023/04/15 10:39:36;;;;;;;19.20;9.88;;;11.50;99.90;;;;;;5071732;28;20039;-69
2023/04/15 10:42:16;;;;;;;25.52;11.38;;;11.60;99.90;;;;;;5071523;28;20556;-68
2023/04/15 10:44:50;;;;;;;20.70;10.82;;;11.60;99.90;;;;;;5071404;28;20071;-68
2023/04/15 10:47:18;;;;;;;21.27;11.70;;;11.60;99.90;;;;;;5071386;28;20315;-68
2023/04/15 10:49:49;;;;;;;24.00;11.00;;;11.70;99.90;;;;;;5071430;28;20450;-70
2023/04/15 10:52:17;;;;;;;23.50;12.18;;;11.60;99.90;;;;;;5071345;28;20146;-68
2023/04/15 10:54:43;;;;;;;24.38;12.05;;;11.70;99.90;;;;;;5071587;28;20009;-69
2023/04/15 10:57:23;;;;;;;23.80;12.48;;;11.70;99.90;;;;;;5071494;28;20076;-70
2023/04/15 10:59:57;;;;;;;30.63;14.05;;;11.70;99.90;;;;;;5071025;28;20040;-70
2023/04/15 11:02:46;;;;;;;41.63;21.83;;;11.70;99.90;;;;;;5071241;28;20052;-69
2023/04/15 11:05:17;;;;;;;34.13;18.55;;;11.80;99.90;;;;;;5070883;28;20067;-71
2023/04/15 11:07:45;;;;;;;26.35;14.13;;;11.80;99.90;;;;;;5068609;28;20150;-69
2023/04/15 11:10:11;;;;;;;30.63;16.30;;;11.90;99.90;;;;;;5072526;28;20028;-70
2023/04/15 11:12:36;;;;;;;29.13;14.55;;;11.90;99.90;;;;;;5072250;28;20144;-69
2023/04/15 11:15:24;;;;;;;32.25;15.32;;;11.90;99.90;;;;;;5072032;28;20050;-70
2023/04/15 11:17:51;;;;;;;29.88;15.65;;;12.00;99.90;;;;;;5070829;28;20408;-70
2023/04/15 11:20:17;;;;;;;34.70;15.57;;;12.00;99.90;;;;;;5072039;28;20070;-71
2023/04/15 11:22:53;;;;;;;33.40;16.90;;;12.00;99.90;;;;;;5071812;28;20115;-70
2023/04/15 11:25:26;;;;;;;35.95;17.08;;;12.00;99.90;;;;;;5071858;28;20179;-71
2023/04/15 11:27:53;;;;;;;34.85;17.42;;;12.00;99.90;;;;;;5072183;28;20044;-70
2023/04/15 11:30:24;;;;;;;40.72;17.95;;;12.10;99.90;;;;;;5071864;28;20294;-72
2023/04/15 11:32:51;;;;;;;36.42;18.05;;;12.10;99.90;;;;;;5071631;28;20048;-70
2023/04/15 11:35:18;;;;;;;32.78;17.40;;;12.10;99.90;;;;;;5071766;28;20482;-71
2023/04/15 11:37:50;;;;;;;38.33;17.95;;;12.00;99.90;;;;;;5071069;28;20036;-68
2023/04/15 11:40:22;;;;;;;37.00;17.13;;;12.10;99.90;;;;;;5070682;28;20028;-71
2023/04/15 11:43:12;;;;;;;45.00;17.88;;;12.10;99.90;;;;;;5070997;28;20522;-71
2023/04/15 11:45:51;;;;;;;39.58;19.25;;;12.20;99.90;;;;;;5071891;28;20105;-69
2023/04/15 11:48:18;;;;;;;40.17;19.25;;;12.20;99.90;;;;;;5054018;28;20415;-69
2023/04/15 11:50:44;;;;;;;42.17;21.02;;;12.10;99.90;;;;;;5070883;28;20028;-69
2023/04/15 11:53:12;;;;;;;44.45;21.17;;;12.10;99.90;;;;;;5070544;28;20283;-69
2023/04/15 11:55:47;;;;;;;47.35;21.40;;;12.10;99.90;;;;;;5070338;28;20165;-69
2023/04/15 11:58:22;;;;;;;44.72;21.20;;;12.10;99.90;;;;;;5070473;28;20450;-70
2023/04/15 12:00:52;;;;;;;46.15;21.27;;;12.10;99.90;;;;;;5070993;28;20096;-70
2023/04/15 12:03:28;;;;;;;44.55;21.48;;;12.10;99.90;;;;;;5070344;28;20040;-70
2023/04/15 12:06:23;;;;;;;48.65;23.60;;;12.10;99.90;;;;;;5070293;28;20040;-70
2023/04/15 12:09:01;;;;;;;48.25;23.00;;;12.10;99.90;;;;;;5070279;28;20107;-70
2023/04/15 12:11:29;;;;;;;49.85;23.23;;;12.10;99.90;;;;;;5052707;28;20051;-70
2023/04/15 12:14:15;;;;;;;49.60;24.15;;;12.10;99.90;;;;;;5070249;28;20086;-71
2023/04/15 12:16:43;;;;;;;58.35;26.85;;;12.10;99.90;;;;;;5052226;28;20098;-69
2023/04/15 12:19:14;;;;;;;49.65;24.38;;;12.10;99.90;;;;;;5070478;28;20028;-69
2023/04/15 12:21:44;;;;;;;52.47;24.92;;;12.00;99.90;;;;;;5070291;28;20029;-69
2023/04/15 12:24:11;;;;;;;57.25;26.88;;;12.10;99.90;;;;;;5069925;28;20036;-71
2023/04/15 12:26:44;;;;;;;53.55;26.42;;;12.00;99.90;;;;;;5070078;28;20474;-70
2023/04/15 12:29:12;;;;;;;56.85;27.42;;;12.10;99.90;;;;;;5070051;28;20124;-70
2023/04/15 12:31:54;;;;;;;54.57;26.63;;;12.10;99.90;;;;;;5069752;28;20215;-72
2023/04/15 12:34:30;;;;;;;61.60;26.88;;;12.10;99.90;;;;;;5069973;28;20028;-71
2023/04/15 12:36:57;;;;;;;58.15;27.75;;;12.10;99.90;;;;;;5070450;28;20020;-70
2023/04/15 12:39:24;;;;;;;57.40;27.17;;;12.10;99.90;;;;;;5069896;28;20071;-70